sensor_id;sensor_type;location;lat;lon;timestamp;pressure;altitude;pressure_sealevel;temperature;humidity
28354;BME280;15603;50.878;8.036;2024-02-23T00:18:24;142764.66;;;-2.14;91.45
28354;BME280;15603;50.878;8.036;2024-02-23T00:22:22;142762.28;;;-2.15;91.43
28354;BME280;15603;50.878;8.036;2024-02-23T00:37:56;142699.69;;;-2.42;93.16
28354;BME280;15603;50.878;8.036;2024-02-23T00:40:49;142692.44;;;-2.45;95.69
28354;BME280;15603;50.878;8.036;2024-02-23T00:43:40;142637.13;;;-2.69;98.13
28354;BME280;15603;50.878;8.036;2024-02-23T00:46:47;142649.13;;;-2.64;97.70
28354;BME280;15603;50.878;8.036;2024-02-23T01:19:17;142564.94;;;-3.00;100.00
28354;BME280;15603;50.878;8.036;2024-02-23T01:30:25;142578.16;;;-2.94;100.00
28354;BME280;15603;50.878;8.036;2024-02-23T01:49:51;142546.88;;;-3.07;99.26
28354;BME280;15603;50.878;8.036;2024-02-23T03:17:56;142331.66;;;-3.99;99.04
28354;BME280;15603;50.878;8.036;2024-02-23T03:29:20;142271.56;;;-4.25;98.17
28354;BME280;15603;50.878;8.036;2024-02-23T03:41:07;142245.13;;;-4.36;99.76
28354;BME280;15603;50.878;8.036;2024-02-23T03:43:57;142234.31;;;-4.41;100.00
28354;BME280;15603;50.878;8.036;2024-02-23T03:47:29;142252.31;;;-4.33;99.26
28354;BME280;15603;50.878;8.036;2024-02-23T03:50:18;142247.53;;;-4.35;99.00
28354;BME280;15603;50.878;8.036;2024-02-23T03:53:03;142251.13;;;-4.34;98.16
28354;BME280;15603;50.878;8.036;2024-02-23T03:55:38;142221.13;;;-4.46;98.69
28354;BME280;15603;50.878;8.036;2024-02-23T04:07:18;142165.84;;;-4.70;100.00
28354;BME280;15603;50.878;8.036;2024-02-23T04:14:08;142103.38;;;-4.97;100.00
28354;BME280;15603;50.878;8.036;2024-02-23T04:17:25;142195.88;;;-4.57;100.00
28354;BME280;15603;50.878;8.036;2024-02-23T04:32:16;142195.88;;;-4.57;100.00
28354;BME280;15603;50.878;8.036;2024-02-23T04:39:40;142177.84;;;-4.65;100.00
28354;BME280;15603;50.878;8.036;2024-02-23T04:42:47;142185.09;;;-4.62;100.00
28354;BME280;15603;50.878;8.036;2024-02-23T04:56:46;142249.94;;;-4.34;100.00
28354;BME280;15603;50.878;8.036;2024-02-23T05:20:21;142187.47;;;-4.61;100.00
28354;BME280;15603;50.878;8.036;2024-02-23T05:22:58;142170.63;;;-4.68;100.00
28354;BME280;15603;50.878;8.036;2024-02-23T05:25:52;142116.59;;;-4.91;100.00
28354;BME280;15603;50.878;8.036;2024-02-23T05:28:43;142116.59;;;-4.91;100.00
28354;BME280;15603;50.878;8.036;2024-02-23T05:35:29;142125.00;;;-4.87;100.00
28354;BME280;15603;50.878;8.036;2024-02-23T05:55:20;142050.56;;;-5.19;100.00
28354;BME280;15603;50.878;8.036;2024-02-23T05:58:38;142040.97;;;-5.23;100.00
28354;BME280;15603;50.878;8.036;2024-02-23T06:05:22;142073.38;;;-5.09;100.00
28354;BME280;15603;50.878;8.036;2024-02-23T06:07:59;142038.56;;;-5.24;100.00
28354;BME280;15603;50.878;8.036;2024-02-23T06:10:48;142027.75;;;-5.29;100.00
28354;BME280;15603;50.878;8.036;2024-02-23T06:17:41;142021.72;;;-5.32;100.00
28354;BME280;15603;50.878;8.036;2024-02-23T06:24:23;142016.94;;;-5.34;100.00
28354;BME280;15603;50.878;8.036;2024-02-23T06:35:36;142015.75;;;-5.34;100.00
28354;BME280;15603;50.878;8.036;2024-02-23T06:46:44;142008.53;;;-5.37;100.00
28354;BME280;15603;50.878;8.036;2024-02-23T06:49:37;141994.13;;;-5.43;100.00
28354;BME280;15603;50.878;8.036;2024-02-23T07:13:38;142024.16;;;-5.30;100.00
28354;BME280;15603;50.878;8.036;2024-02-23T07:16:07;142179.06;;;-4.64;100.00
28354;BME280;15603;50.878;8.036;2024-02-23T07:22:48;142283.56;;;-4.20;100.00
28354;BME280;15603;50.878;8.036;2024-02-23T07:29:55;142329.28;;;-4.00;99.84
28354;BME280;15603;50.878;8.036;2024-02-23T07:33:11;142331.66;;;-3.99;99.35
28354;BME280;15603;50.878;8.036;2024-02-23T07:36:01;142382.13;;;-3.78;98.68
28354;BME280;15603;50.878;8.036;2024-02-23T07:38:50;142396.53;;;-3.71;97.86
28354;BME280;15603;50.878;8.036;2024-02-23T07:46:15;142478.34;;;-3.37;96.19
28354;BME280;15603;50.878;8.036;2024-02-23T07:58:10;142493.94;;;-3.30;93.33
28354;BME280;15603;50.878;8.036;2024-02-23T08:01:16;142456.69;;;-3.46;93.39
28354;BME280;15603;50.878;8.036;2024-02-23T08:03:57;142445.84;;;-3.50;93.13
28354;BME280;15603;50.878;8.036;2024-02-23T08:15:25;142471.13;;;-3.40;91.10
28354;BME280;15603;50.878;8.036;2024-02-23T08:27:23;142572.13;;;-2.97;88.47
28354;BME280;15603;50.878;8.036;2024-02-23T08:34:11;142629.88;;;-2.72;86.54
28354;BME280;15603;50.878;8.036;2024-02-23T08:36:50;142608.22;;;-2.81;86.47
28354;BME280;15603;50.878;8.036;2024-02-23T08:39:24;142668.41;;;-2.55;85.62
28354;BME280;15603;50.878;8.036;2024-02-23T08:42:09;142682.84;;;-2.49;85.23
28354;BME280;15603;50.878;8.036;2024-02-23T08:53:48;142711.69;;;-2.37;83.77
28354;BME280;15603;50.878;8.036;2024-02-23T09:04:20;142703.25;;;-2.41;84.01
28354;BME280;15603;50.878;8.036;2024-02-23T09:07:10;142747.81;;;-2.22;83.64
28354;BME280;15603;50.878;8.036;2024-02-23T09:09:40;142769.47;;;-2.12;83.43
28354;BME280;15603;50.878;8.036;2024-02-23T09:12:18;142781.53;;;-2.07;83.89
28354;BME280;15603;50.878;8.036;2024-02-23T09:15:20;142591.41;;;-2.88;86.05
28354;BME280;15603;50.878;8.036;2024-02-23T09:18:11;142711.69;;;-2.37;85.09
28354;BME280;15603;50.878;8.036;2024-02-23T09:46:19;143129.63;;;-0.59;77.31
28354;BME280;15603;50.878;8.036;2024-02-23T09:49:08;143097.09;;;-0.73;79.34
28354;BME280;15603;50.878;8.036;2024-02-23T10:12:43;143159.78;;;-0.46;75.08
28354;BME280;15603;50.878;8.036;2024-02-23T10:15:43;143147.72;;;-0.51;74.98
28354;BME280;15603;50.878;8.036;2024-02-23T10:22:24;143062.16;;;-0.88;78.21
28354;BME280;15603;50.878;8.036;2024-02-23T10:25:33;143070.59;;;-0.84;78.68
28354;BME280;15603;50.878;8.036;2024-02-23T10:32:45;143167.00;;;-0.43;78.45
28354;BME280;15603;50.878;8.036;2024-02-23T10:56:23;143228.50;;;-0.17;76.91
28354;BME280;15603;50.878;8.036;2024-02-23T11:06:56;143147.72;;;-0.51;80.16
28354;BME280;15603;50.878;8.036;2024-02-23T11:22:43;143034.44;;;-1.00;71.92
28354;BME280;15603;50.878;8.036;2024-02-23T11:26:05;143323.75;;;0.24;70.94
28354;BME280;15603;50.878;8.036;2024-02-23T11:28:48;143297.22;;;0.12;71.30
28354;BME280;15603;50.878;8.036;2024-02-23T11:31:52;143195.94;;;-0.31;72.11
28354;BME280;15603;50.878;8.036;2024-02-23T11:34:35;143198.34;;;-0.30;71.52
28354;BME280;15603;50.878;8.036;2024-02-23T11:37:28;143246.56;;;-0.09;72.05
28354;BME280;15603;50.878;8.036;2024-02-23T11:40:08;143285.13;;;0.07;71.55
28354;BME280;15603;50.878;8.036;2024-02-23T11:42:44;143323.75;;;0.24;69.04
28354;BME280;15603;50.878;8.036;2024-02-23T11:49:08;143311.69;;;0.18;68.52
28354;BME280;15603;50.878;8.036;2024-02-23T12:09:31;143350.28;;;0.35;64.84
28354;BME280;15603;50.878;8.036;2024-02-23T12:11:58;143376.78;;;0.46;65.08
28354;BME280;15603;50.878;8.036;2024-02-23T12:14:26;143445.59;;;0.75;64.73
28354;BME280;15603;50.878;8.036;2024-02-23T12:16:53;143492.63;;;0.95;62.30
28354;BME280;15603;50.878;8.036;2024-02-23T12:19:22;143404.56;;;0.58;62.63
28354;BME280;15603;50.878;8.036;2024-02-23T12:21:49;143409.41;;;0.60;64.81
28354;BME280;15603;50.878;8.036;2024-02-23T12:24:17;143469.72;;;0.86;64.80
28354;BME280;15603;50.878;8.036;2024-02-23T12:26:44;143533.66;;;1.13;62.69
28354;BME280;15603;50.878;8.036;2024-02-23T12:29:11;143515.56;;;1.05;63.93
28354;BME280;15603;50.878;8.036;2024-02-23T12:31:38;143491.44;;;0.95;62.74
28354;BME280;15603;50.878;8.036;2024-02-23T12:34:05;143463.69;;;0.83;64.29
28354;BME280;15603;50.878;8.036;2024-02-23T12:36:35;143467.28;;;0.85;65.01
28354;BME280;15603;50.878;8.036;2024-02-23T12:39:02;143456.44;;;0.80;64.88
28354;BME280;15603;50.878;8.036;2024-02-23T12:41:29;143475.72;;;0.88;63.91
28354;BME280;15603;50.878;8.036;2024-02-23T12:43:57;143478.16;;;0.89;64.17
28354;BME280;15603;50.878;8.036;2024-02-23T12:46:24;143456.44;;;0.80;65.15
28354;BME280;15603;50.878;8.036;2024-02-23T12:48:52;143415.41;;;0.63;64.27
28354;BME280;15603;50.878;8.036;2024-02-23T12:51:25;143416.59;;;0.63;66.12
28354;BME280;15603;50.878;8.036;2024-02-23T12:53:52;143398.50;;;0.55;64.93
28354;BME280;15603;50.878;8.036;2024-02-23T12:56:19;143415.41;;;0.63;67.15
28354;BME280;15603;50.878;8.036;2024-02-23T12:58:48;143454.03;;;0.79;65.48
28354;BME280;15603;50.878;8.036;2024-02-23T13:07:53;143220.03;;;-0.21;72.41
28354;BME280;15603;50.878;8.036;2024-02-23T13:10:21;143127.22;;;-0.60;72.50
28354;BME280;15603;50.878;8.036;2024-02-23T13:12:48;143250.19;;;-0.08;71.67
28354;BME280;15603;50.878;8.036;2024-02-23T13:15:16;143195.94;;;-0.31;73.11
28354;BME280;15603;50.878;8.036;2024-02-23T13:17:47;143181.44;;;-0.37;75.01
28354;BME280;15603;50.878;8.036;2024-02-23T13:20:14;143244.16;;;-0.10;73.56
28354;BME280;15603;50.878;8.036;2024-02-23T13:22:41;143286.34;;;0.08;72.74
28354;BME280;15603;50.878;8.036;2024-02-23T13:25:09;143250.19;;;-0.08;73.13
28354;BME280;15603;50.878;8.036;2024-02-23T13:27:36;143271.88;;;0.02;74.75
28354;BME280;15603;50.878;8.036;2024-02-23T13:30:04;143337.03;;;0.29;71.96
28354;BME280;15603;50.878;8.036;2024-02-23T13:32:32;143321.31;;;0.23;69.58
28354;BME280;15603;50.878;8.036;2024-02-23T13:35:04;143498.66;;;0.98;68.19
28354;BME280;15603;50.878;8.036;2024-02-23T13:37:33;143502.28;;;1.00;69.17
28354;BME280;15603;50.878;8.036;2024-02-23T13:40:01;143540.94;;;1.16;66.71
28354;BME280;15603;50.878;8.036;2024-02-23T13:42:28;143533.66;;;1.13;66.98
28354;BME280;15603;50.878;8.036;2024-02-23T13:44:55;143591.63;;;1.37;65.26
28354;BME280;15603;50.878;8.036;2024-02-23T13:47:25;143598.88;;;1.41;65.05
28354;BME280;15603;50.878;8.036;2024-02-23T13:49:52;143608.53;;;1.45;64.78
28354;BME280;15603;50.878;8.036;2024-02-23T13:52:19;143653.19;;;1.64;65.09
28354;BME280;15603;50.878;8.036;2024-02-23T13:54:46;143645.94;;;1.61;65.49
28354;BME280;15603;50.878;8.036;2024-02-23T13:57:13;143601.25;;;1.42;63.34
28354;BME280;15603;50.878;8.036;2024-02-23T13:59:40;143503.47;;;1.00;66.51
28354;BME280;15603;50.878;8.036;2024-02-23T14:02:07;143434.72;;;0.71;65.72
28354;BME280;15603;50.878;8.036;2024-02-23T14:04:34;143539.69;;;1.15;65.80
28354;BME280;15603;50.878;8.036;2024-02-23T14:07:02;143624.19;;;1.51;63.99
28354;BME280;15603;50.878;8.036;2024-02-23T14:09:31;143695.44;;;1.82;62.09
28354;BME280;15603;50.878;8.036;2024-02-23T14:11:58;143708.72;;;1.87;62.33
28354;BME280;15603;50.878;8.036;2024-02-23T14:14:25;143705.09;;;1.86;60.39
28354;BME280;15603;50.878;8.036;2024-02-23T14:16:52;143601.25;;;1.42;61.41
28354;BME280;15603;50.878;8.036;2024-02-23T14:19:19;143538.50;;;1.15;62.95
28354;BME280;15603;50.878;8.036;2024-02-23T14:21:47;143530.03;;;1.11;62.79
28354;BME280;15603;50.878;8.036;2024-02-23T14:24:15;143495.06;;;0.96;64.08
28354;BME280;15603;50.878;8.036;2024-02-23T14:26:42;143470.91;;;0.86;61.94
28354;BME280;15603;50.878;8.036;2024-02-23T14:29:09;143502.28;;;1.00;60.99
28354;BME280;15603;50.878;8.036;2024-02-23T14:31:36;143466.09;;;0.84;61.89
28354;BME280;15603;50.878;8.036;2024-02-23T14:34:03;143451.63;;;0.78;62.05
28354;BME280;15603;50.878;8.036;2024-02-23T14:36:31;143422.66;;;0.66;62.56
28354;BME280;15603;50.878;8.036;2024-02-23T14:39:00;143489.00;;;0.94;63.06
28354;BME280;15603;50.878;8.036;2024-02-23T14:41:28;143369.59;;;0.43;61.32
28354;BME280;15603;50.878;8.036;2024-02-23T14:43:55;143519.19;;;1.07;62.92
28354;BME280;15603;50.878;8.036;2024-02-23T14:46:22;143516.75;;;1.06;61.48
28354;BME280;15603;50.878;8.036;2024-02-23T14:48:49;143415.41;;;0.63;63.13
28354;BME280;15603;50.878;8.036;2024-02-23T14:51:16;143396.13;;;0.54;64.44
28354;BME280;15603;50.878;8.036;2024-02-23T14:53:44;143286.34;;;0.08;64.74
28354;BME280;15603;50.878;8.036;2024-02-23T14:56:12;143323.75;;;0.24;65.56
28354;BME280;15603;50.878;8.036;2024-02-23T14:58:39;143224.88;;;-0.18;66.26
28354;BME280;15603;50.878;8.036;2024-02-23T15:01:06;143285.13;;;0.07;67.44
28354;BME280;15603;50.878;8.036;2024-02-23T15:03:34;143221.25;;;-0.20;70.28
28354;BME280;15603;50.878;8.036;2024-02-23T15:06:01;143224.88;;;-0.18;71.96
28354;BME280;15603;50.878;8.036;2024-02-23T15:08:28;143205.59;;;-0.27;73.44
28354;BME280;15603;50.878;8.036;2024-02-23T15:10:56;143271.88;;;0.02;74.51
28354;BME280;15603;50.878;8.036;2024-02-23T15:13:23;143364.75;;;0.41;72.54
28354;BME280;15603;50.878;8.036;2024-02-23T15:15:50;143337.03;;;0.29;71.72
28354;BME280;15603;50.878;8.036;2024-02-23T15:18:18;143350.28;;;0.35;71.26
28354;BME280;15603;50.878;8.036;2024-02-23T15:20:45;143291.19;;;0.10;73.71
28354;BME280;15603;50.878;8.036;2024-02-23T15:23:13;143220.03;;;-0.21;76.14
28354;BME280;15603;50.878;8.036;2024-02-23T15:25:40;143188.69;;;-0.34;75.89
28354;BME280;15603;50.878;8.036;2024-02-23T15:28:12;143080.22;;;-0.80;76.88
28354;BME280;15603;50.878;8.036;2024-02-23T15:30:40;143099.50;;;-0.72;79.41
28354;BME280;15603;50.878;8.036;2024-02-23T15:33:07;143087.47;;;-0.77;79.46
28354;BME280;15603;50.878;8.036;2024-02-23T15:35:34;143039.25;;;-0.97;80.32
28354;BME280;15603;50.878;8.036;2024-02-23T15:38:01;143034.44;;;-1.00;81.30
28354;BME280;15603;50.878;8.036;2024-02-23T15:40:28;143028.38;;;-1.02;82.07
28354;BME280;15603;50.878;8.036;2024-02-23T15:42:55;143032.00;;;-1.01;82.23
28354;BME280;15603;50.878;8.036;2024-02-23T15:45:23;143018.75;;;-1.06;83.67
28354;BME280;15603;50.878;8.036;2024-02-23T15:47:50;143020.00;;;-1.06;84.10
28354;BME280;15603;50.878;8.036;2024-02-23T15:50:17;143000.69;;;-1.14;82.76
28354;BME280;15603;50.878;8.036;2024-02-23T15:53:06;143013.94;;;-1.08;83.42
28354;BME280;15603;50.878;8.036;2024-02-23T15:55:33;143007.94;;;-1.11;84.43
28354;BME280;15603;50.878;8.036;2024-02-23T15:58:01;142991.06;;;-1.18;83.69
28354;BME280;15603;50.878;8.036;2024-02-23T16:00:29;142988.66;;;-1.19;84.41
28354;BME280;15603;50.878;8.036;2024-02-23T16:02:56;143003.13;;;-1.13;83.72
28354;BME280;15603;50.878;8.036;2024-02-23T16:05:23;143034.44;;;-1.00;82.48
28354;BME280;15603;50.878;8.036;2024-02-23T16:07:51;143030.81;;;-1.01;83.49
28354;BME280;15603;50.878;8.036;2024-02-23T16:10:18;143075.41;;;-0.82;82.01
28354;BME280;15603;50.878;8.036;2024-02-23T16:12:49;143094.66;;;-0.74;81.83
28354;BME280;15603;50.878;8.036;2024-02-23T16:15:18;143045.25;;;-0.95;82.98
28354;BME280;15603;50.878;8.036;2024-02-23T16:17:45;143056.13;;;-0.90;82.22
28354;BME280;15603;50.878;8.036;2024-02-23T16:20:12;143021.19;;;-1.05;82.02
28354;BME280;15603;50.878;8.036;2024-02-23T16:22:43;142982.63;;;-1.22;83.48
28354;BME280;15603;50.878;8.036;2024-02-23T16:25:10;142942.91;;;-1.39;84.34
28354;BME280;15603;50.878;8.036;2024-02-23T16:27:37;142903.13;;;-1.55;85.46
28354;BME280;15603;50.878;8.036;2024-02-23T16:30:09;142901.91;;;-1.56;84.80
28354;BME280;15603;50.878;8.036;2024-02-23T16:32:37;142814.03;;;-1.93;85.39
28354;BME280;15603;50.878;8.036;2024-02-23T16:35:05;142771.91;;;-2.11;86.58
28354;BME280;15603;50.878;8.036;2024-02-23T16:37:33;142820.03;;;-1.91;87.01
28354;BME280;15603;50.878;8.036;2024-02-23T16:40:00;142805.59;;;-1.97;87.39
28354;BME280;15603;50.878;8.036;2024-02-23T16:42:27;142786.34;;;-2.05;88.03
28354;BME280;15603;50.878;8.036;2024-02-23T16:44:54;142758.66;;;-2.17;89.28
28354;BME280;15603;50.878;8.036;2024-02-23T16:47:22;142726.16;;;-2.31;89.98
28354;BME280;15603;50.878;8.036;2024-02-23T16:49:49;142714.13;;;-2.36;89.85
28354;BME280;15603;50.878;8.036;2024-02-23T16:52:16;142697.25;;;-2.43;90.17
28354;BME280;15603;50.878;8.036;2024-02-23T16:54:43;142691.25;;;-2.46;90.79
28354;BME280;15603;50.878;8.036;2024-02-23T16:57:10;142668.41;;;-2.55;91.95
28354;BME280;15603;50.878;8.036;2024-02-23T16:59:38;142665.97;;;-2.57;91.72
28354;BME280;15603;50.878;8.036;2024-02-23T17:02:05;142602.22;;;-2.84;91.81
28354;BME280;15603;50.878;8.036;2024-02-23T17:04:32;142625.06;;;-2.74;92.86
28354;BME280;15603;50.878;8.036;2024-02-23T17:06:59;142550.50;;;-3.06;92.66
28354;BME280;15603;50.878;8.036;2024-02-23T17:09:28;142593.78;;;-2.87;93.71
28354;BME280;15603;50.878;8.036;2024-02-23T17:11:55;142573.34;;;-2.96;93.98
28354;BME280;15603;50.878;8.036;2024-02-23T17:14:22;142561.31;;;-3.01;94.36
28354;BME280;15603;50.878;8.036;2024-02-23T17:16:52;142550.50;;;-3.06;94.86
28354;BME280;15603;50.878;8.036;2024-02-23T17:19:19;142478.34;;;-3.37;94.80
28354;BME280;15603;50.878;8.036;2024-02-23T17:21:46;142521.59;;;-3.18;95.27
28354;BME280;15603;50.878;8.036;2024-02-23T17:24:13;142525.22;;;-3.17;94.66
28354;BME280;15603;50.878;8.036;2024-02-23T17:26:41;142524.03;;;-3.17;95.01
28354;BME280;15603;50.878;8.036;2024-02-23T17:29:08;142512.00;;;-3.22;95.02
28354;BME280;15603;50.878;8.036;2024-02-23T17:31:36;142353.28;;;-3.90;94.21
28354;BME280;15603;50.878;8.036;2024-02-23T17:34:04;142499.94;;;-3.27;94.33
28354;BME280;15603;50.878;8.036;2024-02-23T17:36:31;142492.75;;;-3.30;95.27
28354;BME280;15603;50.878;8.036;2024-02-23T17:38:58;142473.53;;;-3.39;95.67
28354;BME280;15603;50.878;8.036;2024-02-23T17:41:25;142499.94;;;-3.27;94.26
28354;BME280;15603;50.878;8.036;2024-02-23T17:43:52;142490.34;;;-3.31;95.00
28354;BME280;15603;50.878;8.036;2024-02-23T17:46:19;142481.91;;;-3.35;94.28
28354;BME280;15603;50.878;8.036;2024-02-23T17:48:46;142468.69;;;-3.41;94.26
28354;BME280;15603;50.878;8.036;2024-02-23T17:51:14;142451.88;;;-3.48;94.80
28354;BME280;15603;50.878;8.036;2024-02-23T17:53:41;142456.69;;;-3.46;95.09
28354;BME280;15603;50.878;8.036;2024-02-23T17:56:08;142459.06;;;-3.45;94.23
28354;BME280;15603;50.878;8.036;2024-02-23T17:58:36;142437.47;;;-3.54;95.80
28354;BME280;15603;50.878;8.036;2024-02-23T18:01:04;142438.66;;;-3.53;95.97
28354;BME280;15603;50.878;8.036;2024-02-23T18:03:32;142415.81;;;-3.63;96.55
28354;BME280;15603;50.878;8.036;2024-02-23T18:05:59;142435.03;;;-3.55;95.71
28354;BME280;15603;50.878;8.036;2024-02-23T18:08:26;142418.19;;;-3.62;95.22
28354;BME280;15603;50.878;8.036;2024-02-23T18:10:53;142408.59;;;-3.66;96.27
28354;BME280;15603;50.878;8.036;2024-02-23T18:13:20;142412.19;;;-3.65;95.78
28354;BME280;15603;50.878;8.036;2024-02-23T18:15:50;142423.00;;;-3.60;95.13
28354;BME280;15603;50.878;8.036;2024-02-23T18:18:17;142412.19;;;-3.65;95.10
28354;BME280;15603;50.878;8.036;2024-02-23T18:20:47;142418.19;;;-3.62;95.48
28354;BME280;15603;50.878;8.036;2024-02-23T18:23:14;142371.31;;;-3.82;96.76
28354;BME280;15603;50.878;8.036;2024-02-23T18:25:41;142278.75;;;-4.22;95.81
28354;BME280;15603;50.878;8.036;2024-02-23T18:28:08;142411.00;;;-3.65;94.13
28354;BME280;15603;50.878;8.036;2024-02-23T18:30:35;142404.97;;;-3.68;94.42
28354;BME280;15603;50.878;8.036;2024-02-23T18:33:03;142408.59;;;-3.66;94.43
28354;BME280;15603;50.878;8.036;2024-02-23T18:35:31;142418.19;;;-3.62;93.11
28354;BME280;15603;50.878;8.036;2024-02-23T18:37:59;142415.81;;;-3.63;93.87
28354;BME280;15603;50.878;8.036;2024-02-23T18:40:26;142314.81;;;-4.06;93.86
28354;BME280;15603;50.878;8.036;2024-02-23T18:42:53;142382.13;;;-3.78;93.98
28354;BME280;15603;50.878;8.036;2024-02-23T18:45:20;142298.03;;;-4.13;94.02
28354;BME280;15603;50.878;8.036;2024-02-23T18:47:48;142401.41;;;-3.69;93.62
28354;BME280;15603;50.878;8.036;2024-02-23T18:50:15;142394.16;;;-3.72;93.40
28354;BME280;15603;50.878;8.036;2024-02-23T18:52:42;142450.66;;;-3.48;93.56
28354;BME280;15603;50.878;8.036;2024-02-23T18:55:09;142487.97;;;-3.32;91.81
28354;BME280;15603;50.878;8.036;2024-02-23T18:57:36;142507.19;;;-3.24;91.99
28354;BME280;15603;50.878;8.036;2024-02-23T19:00:04;142502.38;;;-3.26;91.75
28354;BME280;15603;50.878;8.036;2024-02-23T19:02:33;142504.75;;;-3.25;92.91
28354;BME280;15603;50.878;8.036;2024-02-23T19:05:02;142513.19;;;-3.22;92.63
28354;BME280;15603;50.878;8.036;2024-02-23T19:07:29;142514.41;;;-3.21;92.76
28354;BME280;15603;50.878;8.036;2024-02-23T19:09:57;142509.63;;;-3.23;93.27
28354;BME280;15603;50.878;8.036;2024-02-23T19:12:24;142510.81;;;-3.23;93.24
28354;BME280;15603;50.878;8.036;2024-02-23T19:14:51;142522.81;;;-3.18;93.43
28354;BME280;15603;50.878;8.036;2024-02-23T19:17:18;142516.81;;;-3.20;93.81
28354;BME280;15603;50.878;8.036;2024-02-23T19:19:46;142502.38;;;-3.26;94.23
28354;BME280;15603;50.878;8.036;2024-02-23T19:22:13;142549.25;;;-3.06;93.78
28354;BME280;15603;50.878;8.036;2024-02-23T19:24:40;142531.22;;;-3.14;93.90
28354;BME280;15603;50.878;8.036;2024-02-23T19:27:07;142545.69;;;-3.08;94.06
28354;BME280;15603;50.878;8.036;2024-02-23T19:29:34;142540.84;;;-3.10;93.64
28354;BME280;15603;50.878;8.036;2024-02-23T19:32:01;142550.50;;;-3.06;94.03
28354;BME280;15603;50.878;8.036;2024-02-23T19:34:28;142519.22;;;-3.19;94.19
28354;BME280;15603;50.878;8.036;2024-02-23T19:36:56;142499.94;;;-3.27;95.21
28354;BME280;15603;50.878;8.036;2024-02-23T19:39:25;142473.53;;;-3.39;96.03
28354;BME280;15603;50.878;8.036;2024-02-23T19:41:52;142447.06;;;-3.50;97.66
28354;BME280;15603;50.878;8.036;2024-02-23T19:44:19;142455.50;;;-3.46;97.09
28354;BME280;15603;50.878;8.036;2024-02-23T19:46:46;142451.88;;;-3.48;97.80
28354;BME280;15603;50.878;8.036;2024-02-23T19:49:13;142386.94;;;-3.76;97.30
28354;BME280;15603;50.878;8.036;2024-02-23T19:51:40;142426.63;;;-3.59;98.41
28354;BME280;15603;50.878;8.036;2024-02-23T19:54:07;142462.69;;;-3.43;97.30
28354;BME280;15603;50.878;8.036;2024-02-23T19:56:35;142322.03;;;-4.03;97.20
28354;BME280;15603;50.878;8.036;2024-02-23T19:59:02;142451.88;;;-3.48;97.17
28354;BME280;15603;50.878;8.036;2024-02-23T20:01:29;142437.47;;;-3.54;97.48
28354;BME280;15603;50.878;8.036;2024-02-23T20:03:56;142444.66;;;-3.51;97.41
28354;BME280;15603;50.878;8.036;2024-02-23T20:06:23;142442.28;;;-3.52;98.27
28354;BME280;15603;50.878;8.036;2024-02-23T20:08:50;142473.53;;;-3.39;97.43
28354;BME280;15603;50.878;8.036;2024-02-23T20:11:18;142391.75;;;-3.73;97.27
28354;BME280;15603;50.878;8.036;2024-02-23T20:13:45;142498.75;;;-3.28;97.35
28354;BME280;15603;50.878;8.036;2024-02-23T20:16:13;142496.38;;;-3.29;97.43
28354;BME280;15603;50.878;8.036;2024-02-23T20:18:40;142491.56;;;-3.31;97.67
28354;BME280;15603;50.878;8.036;2024-02-23T20:21:07;142496.38;;;-3.29;97.86
28354;BME280;15603;50.878;8.036;2024-02-23T20:23:35;142498.75;;;-3.28;97.42
28354;BME280;15603;50.878;8.036;2024-02-23T20:26:20;142492.75;;;-3.30;97.46
28354;BME280;15603;50.878;8.036;2024-02-23T20:28:47;142520.41;;;-3.19;97.57
28354;BME280;15603;50.878;8.036;2024-02-23T20:31:15;142548.06;;;-3.07;96.85
28354;BME280;15603;50.878;8.036;2024-02-23T20:33:42;142502.38;;;-3.26;97.22
28354;BME280;15603;50.878;8.036;2024-02-23T20:36:10;142516.81;;;-3.20;97.23
28354;BME280;15603;50.878;8.036;2024-02-23T20:38:38;142536.03;;;-3.12;97.41
28354;BME280;15603;50.878;8.036;2024-02-23T20:41:05;142550.50;;;-3.06;97.10
28354;BME280;15603;50.878;8.036;2024-02-23T20:43:32;142495.16;;;-3.29;98.28
28354;BME280;15603;50.878;8.036;2024-02-23T20:45:59;142509.63;;;-3.23;98.84
28354;BME280;15603;50.878;8.036;2024-02-23T20:48:27;142552.88;;;-3.05;97.05
28354;BME280;15603;50.878;8.036;2024-02-23T20:50:54;142528.84;;;-3.15;96.75
28354;BME280;15603;50.878;8.036;2024-02-23T20:53:21;142536.03;;;-3.12;97.14
28354;BME280;15603;50.878;8.036;2024-02-23T20:55:49;142497.56;;;-3.28;98.23
28354;BME280;15603;50.878;8.036;2024-02-23T20:58:17;142483.16;;;-3.34;98.30
28354;BME280;15603;50.878;8.036;2024-02-23T21:00:44;142437.47;;;-3.54;99.48
28354;BME280;15603;50.878;8.036;2024-02-23T21:03:11;142497.56;;;-3.28;99.29
28354;BME280;15603;50.878;8.036;2024-02-23T21:05:39;142499.94;;;-3.27;99.57
28354;BME280;15603;50.878;8.036;2024-02-23T21:08:06;142485.53;;;-3.33;98.77
28354;BME280;15603;50.878;8.036;2024-02-23T21:10:33;142502.38;;;-3.26;99.58
28354;BME280;15603;50.878;8.036;2024-02-23T21:13:00;142496.38;;;-3.29;100.00
28354;BME280;15603;50.878;8.036;2024-02-23T21:15:29;142536.03;;;-3.12;99.59
28354;BME280;15603;50.878;8.036;2024-02-23T21:17:56;142552.88;;;-3.05;98.76
28354;BME280;15603;50.878;8.036;2024-02-23T21:20:24;142605.81;;;-2.82;96.98
28354;BME280;15603;50.878;8.036;2024-02-23T21:22:51;142605.81;;;-2.82;97.61
28354;BME280;15603;50.878;8.036;2024-02-23T21:25:19;142557.69;;;-3.03;96.85
28354;BME280;15603;50.878;8.036;2024-02-23T21:27:46;142516.81;;;-3.20;97.71
28354;BME280;15603;50.878;8.036;2024-02-23T21:30:13;142537.28;;;-3.11;98.49
28354;BME280;15603;50.878;8.036;2024-02-23T21:32:40;142451.88;;;-3.48;97.78
28354;BME280;15603;50.878;8.036;2024-02-23T21:35:07;142555.31;;;-3.04;98.26
28354;BME280;15603;50.878;8.036;2024-02-23T21:37:35;142567.31;;;-2.99;97.23
28354;BME280;15603;50.878;8.036;2024-02-23T21:40:02;142569.75;;;-2.98;96.90
28354;BME280;15603;50.878;8.036;2024-02-23T21:42:29;142573.34;;;-2.96;97.43
28354;BME280;15603;50.878;8.036;2024-02-23T21:44:57;142539.66;;;-3.10;98.32
28354;BME280;15603;50.878;8.036;2024-02-23T21:47:24;142552.88;;;-3.05;98.66